Time;durP1;ratioP1;P1;durP2;ratioP2;P2;SDS_P1;SDS_P2;PMS_P1;PMS_P2;Temp;Humidity;BMP_temperature;BMP_pressure;BME280_temperature;BME280_humidity;BME280_pressure;Samples;Min_cycle;Max_cycle;Signal;HPM_P1;HPM_P2
2023/09/07 00:01:00;;;;;;;16.25;3.13;;;38.40;53.80;;;;;;4996697;28;20015;-60
2023/09/07 00:03:27;;;;;;;14.57;3.22;;;38.40;53.70;;;;;;4997908;28;20017;-60
2023/09/07 00:05:53;;;;;;;11.93;3.40;;;38.40;53.70;;;;;;4995743;28;20021;-60
2023/09/07 00:08:20;;;;;;;12.15;3.85;;;38.30;53.80;;;;;;4995153;28;20137;-62
2023/09/07 00:10:46;;;;;;;22.02;4.40;;;38.20;54.00;;;;;;4993401;28;20023;-60
2023/09/07 00:13:12;;;;;;;18.27;7.32;;;38.20;54.20;;;;;;4993147;28;20390;-61
2023/09/07 00:15:39;;;;;;;15.73;3.63;;;38.30;54.50;;;;;;4995317;28;20046;-62
2023/09/07 00:18:06;;;;;;;10.95;3.65;;;38.10;54.00;;;;;;5000430;28;20049;-60
2023/09/07 00:20:33;;;;;;;13.40;3.67;;;38.00;54.30;;;;;;5001506;28;20026;-59
2023/09/07 00:23:00;;;;;;;8.18;3.00;;;38.00;54.10;;;;;;4995093;28;20102;-60
2023/09/07 00:25:27;;;;;;;10.55;3.00;;;37.90;54.00;;;;;;4994288;28;20065;-62
2023/09/07 00:27:53;;;;;;;17.35;3.60;;;37.90;54.50;;;;;;5001091;28;20371;-62
2023/09/07 00:30:20;;;;;;;22.38;3.92;;;37.80;54.80;;;;;;4995700;28;20517;-63
2023/09/07 00:32:46;;;;;;;25.60;3.95;;;37.80;54.30;;;;;;4993842;28;20434;-62
2023/09/07 00:35:13;;;;;;;15.73;3.97;;;37.80;55.00;;;;;;5002492;28;20025;-61
2023/09/07 00:37:39;;;;;;;15.50;4.20;;;37.70;54.40;;;;;;4995006;28;20029;-61
2023/09/07 00:40:08;;;;;;;15.90;3.72;;;37.70;55.30;;;;;;4994978;28;20482;-62
2023/09/07 00:42:36;;;;;;;18.73;3.95;;;37.60;54.80;;;;;;5002235;28;20387;-60
2023/09/07 00:45:02;;;;;;;15.00;3.83;;;37.50;54.70;;;;;;5001543;28;20433;-61
2023/09/07 00:47:29;;;;;;;21.10;3.97;;;37.40;55.50;;;;;;5001695;28;20018;-60
2023/09/07 00:49:55;;;;;;;21.25;4.15;;;37.30;55.20;;;;;;4999467;28;20017;-60
2023/09/07 00:52:22;;;;;;;23.67;3.92;;;37.30;54.70;;;;;;5000161;28;20446;-62
2023/09/07 00:54:49;;;;;;;15.65;3.60;;;37.20;55.50;;;;;;5000337;28;20030;-62
2023/09/07 00:57:15;;;;;;;18.73;3.90;;;37.10;55.70;;;;;;5001068;28;20356;-60
2023/09/07 00:59:42;;;;;;;20.20;4.40;;;37.20;55.60;;;;;;5001931;28;20025;-62
2023/09/07 01:02:08;;;;;;;16.13;3.65;;;37.10;55.60;;;;;;5000091;28;20010;-62
2023/09/07 01:04:34;;;;;;;14.88;3.90;;;37.10;56.10;;;;;;4998870;28;20018;-61
2023/09/07 01:07:22;;;;;;;15.10;3.88;;;37.00;55.40;;;;;;5002247;28;20013;-61
2023/09/07 01:09:54;;;;;;;13.05;4.13;;;37.00;55.30;;;;;;4998053;28;20022;-62
2023/09/07 01:12:21;;;;;;;23.20;3.90;;;36.90;55.40;;;;;;4999754;28;20049;-61
2023/09/07 01:14:47;;;;;;;27.55;4.32;;;36.90;55.70;;;;;;5001049;28;20028;-61
2023/09/07 01:17:14;;;;;;;22.02;3.92;;;36.90;55.70;;;;;;4998783;28;20478;-64
2023/09/07 01:19:41;;;;;;;18.08;4.25;;;36.90;55.90;;;;;;5001834;28;20030;-61
2023/09/07 01:22:09;;;;;;;29.63;4.65;;;36.80;55.70;;;;;;5000260;28;20014;-61
2023/09/07 01:24:37;;;;;;;26.52;4.38;;;36.70;55.80;;;;;;4994161;28;20049;-62
2023/09/07 01:27:05;;;;;;;24.80;4.32;;;36.70;56.20;;;;;;4990428;28;20106;-60
2023/09/07 01:29:31;;;;;;;18.25;4.30;;;36.60;56.20;;;;;;4991673;28;20391;-61
2023/09/07 01:31:58;;;;;;;21.83;5.07;;;36.50;56.30;;;;;;4994057;28;20048;-61
2023/09/07 01:34:25;;;;;;;24.65;3.95;;;36.50;55.80;;;;;;4996779;28;20010;-61
2023/09/07 01:36:51;;;;;;;29.33;4.63;;;36.40;56.50;;;;;;4998885;28;20042;-65
2023/09/07 01:39:18;;;;;;;17.92;3.78;;;36.70;56.90;;;;;;5014878;28;20037;-62
2023/09/07 01:41:46;;;;;;;17.65;4.18;;;37.00;56.50;;;;;;4997847;28;20042;-62
2023/09/07 01:44:12;;;;;;;24.77;4.57;;;37.30;55.70;;;;;;4992189;28;20025;-61
2023/09/07 01:46:38;;;;;;;25.25;5.00;;;37.50;55.60;;;;;;4998637;28;20014;-63
2023/09/07 01:49:05;;;;;;;14.98;3.92;;;37.50;56.20;;;;;;4995331;28;20450;-62
2023/09/07 01:51:32;;;;;;;18.08;4.32;;;37.60;55.20;;;;;;4993724;28;20105;-63
2023/09/07 01:53:58;;;;;;;23.30;4.25;;;37.70;55.50;;;;;;4992898;28;20034;-62
2023/09/07 01:56:24;;;;;;;15.85;3.97;;;37.70;55.60;;;;;;4991274;28;20022;-61
2023/09/07 01:58:51;;;;;;;21.52;4.18;;;37.60;55.50;;;;;;4990861;28;20081;-63
2023/09/07 02:01:30;;;;;;;18.00;3.97;;;37.60;55.00;;;;;;5001382;28;20018;-63
2023/09/07 02:03:57;;;;;;;17.05;3.92;;;37.60;54.60;;;;;;5012573;28;20973;-63
2023/09/07 02:06:23;;;;;;;18.95;3.88;;;37.50;54.80;;;;;;4999620;28;20109;-63
2023/09/07 02:08:50;;;;;;;18.70;4.45;;;37.40;55.00;;;;;;4998567;28;20068;-63
2023/09/07 02:11:16;;;;;;;13.93;3.88;;;37.20;55.00;;;;;;5000978;28;20120;-62
2023/09/07 02:13:43;;;;;;;13.23;3.40;;;37.00;55.30;;;;;;4996453;28;21050;-63
2023/09/07 02:16:10;;;;;;;13.85;3.53;;;36.90;55.20;;;;;;4998598;28;20097;-63
2023/09/07 02:18:43;;;;;;;24.55;4.43;;;36.90;55.90;;;;;;5000925;28;20494;-63
2023/09/07 02:21:10;;;;;;;14.00;3.88;;;36.90;55.50;;;;;;5000937;28;20018;-61
2023/09/07 02:23:37;;;;;;;19.42;4.22;;;36.80;55.50;;;;;;4999765;28;20024;-61
2023/09/07 02:26:03;;;;;;;22.10;4.25;;;36.70;55.60;;;;;;4999146;28;20482;-62
2023/09/07 02:28:30;;;;;;;15.63;4.13;;;36.70;55.90;;;;;;4996941;28;20471;-63
2023/09/07 02:31:06;;;;;;;16.70;4.15;;;36.70;55.50;;;;;;4997727;28;20032;-61
2023/09/07 02:33:33;;;;;;;15.75;4.07;;;36.70;56.00;;;;;;4996043;28;20073;-64
2023/09/07 02:36:00;;;;;;;22.40;4.20;;;36.60;56.10;;;;;;4999681;28;20372;-63
2023/09/07 02:38:26;;;;;;;26.70;5.38;;;36.40;56.10;;;;;;4999472;28;20022;-61
2023/09/07 02:40:53;;;;;;;19.80;9.05;;;36.40;56.10;;;;;;4998242;28;20022;-63
2023/09/07 02:43:19;;;;;;;14.73;6.30;;;36.30;56.60;;;;;;4989280;28;20013;-63
2023/09/07 02:45:45;;;;;;;20.67;7.40;;;36.30;56.40;;;;;;4991054;28;20011;-62
2023/09/07 02:48:12;;;;;;;16.35;4.22;;;36.20;56.40;;;;;;4990134;28;20030;-64
2023/09/07 02:50:39;;;;;;;24.65;4.70;;;36.00;56.40;;;;;;4999275;28;20524;-63
2023/09/07 02:53:06;;;;;;;20.35;4.90;;;35.90;56.70;;;;;;4990742;28;20467;-62
2023/09/07 02:55:32;;;;;;;29.60;4.65;;;35.80;57.00;;;;;;4994371;28;20022;-64
2023/09/07 02:57:59;;;;;;;13.98;4.05;;;35.80;57.60;;;;;;4994703;28;20407;-64
2023/09/07 03:00:25;;;;;;;20.73;4.45;;;35.70;57.60;;;;;;4996372;28;20492;-61
2023/09/07 03:02:52;;;;;;;20.08;4.40;;;35.80;57.50;;;;;;4991757;28;20021;-61
2023/09/07 03:05:18;;;;;;;23.73;4.28;;;35.40;57.90;;;;;;4990004;28;20011;-62
2023/09/07 03:07:46;;;;;;;23.08;4.70;;;35.20;58.50;;;;;;4991961;28;20014;-59
2023/09/07 03:10:13;;;;;;;25.60;5.05;;;34.90;58.70;;;;;;4992378;28;20011;-59
2023/09/07 03:12:40;;;;;;;28.63;5.63;;;34.80;59.10;;;;;;5001453;28;20010;-60
2023/09/07 03:15:07;;;;;;;25.13;6.00;;;34.70;59.30;;;;;;4992793;28;20018;-59
2023/09/07 03:17:33;;;;;;;19.30;5.93;;;34.60;60.00;;;;;;4991039;28;20034;-63
2023/09/07 03:20:01;;;;;;;24.13;7.00;;;34.50;59.60;;;;;;4992143;28;20038;-61
2023/09/07 03:22:29;;;;;;;20.35;6.82;;;34.40;60.00;;;;;;4992892;28;20387;-62
2023/09/07 03:24:55;;;;;;;27.25;7.90;;;34.30;60.10;;;;;;4993942;28;20018;-61
2023/09/07 03:27:22;;;;;;;22.67;6.85;;;34.30;60.60;;;;;;5001432;28;20036;-61
2023/09/07 03:29:51;;;;;;;27.60;7.07;;;34.20;60.90;;;;;;4997621;28;20021;-61
2023/09/07 03:32:18;;;;;;;25.63;5.82;;;34.10;61.40;;;;;;4994104;28;20021;-59
2023/09/07 03:34:44;;;;;;;25.58;5.78;;;34.00;61.60;;;;;;5011064;28;20018;-60
2023/09/07 03:37:11;;;;;;;27.48;5.88;;;34.00;62.30;;;;;;4997935;28;20019;-60
2023/09/07 03:39:37;;;;;;;25.92;5.65;;;33.90;61.90;;;;;;4996549;28;20483;-60
2023/09/07 03:42:04;;;;;;;28.23;5.20;;;33.90;62.00;;;;;;4997567;28;20025;-59
2023/09/07 03:44:30;;;;;;;22.52;5.32;;;33.80;62.30;;;;;;4998253;28;20062;-59
2023/09/07 03:46:57;;;;;;;32.50;5.28;;;33.70;62.60;;;;;;4997952;28;20188;-59
2023/09/07 03:49:23;;;;;;;15.85;5.65;;;33.70;62.90;;;;;;4993803;28;20015;-60
2023/09/07 03:51:50;;;;;;;31.45;5.82;;;33.60;62.70;;;;;;4994274;28;20190;-59
2023/09/07 03:54:16;;;;;;;24.05;6.15;;;33.60;63.00;;;;;;4994142;28;20022;-59
2023/09/07 03:56:43;;;;;;;46.40;7.28;;;33.40;63.20;;;;;;4992217;28;20105;-58
2023/09/07 03:59:11;;;;;;;33.42;7.47;;;33.40;63.50;;;;;;4993042;28;20031;-60
2023/09/07 04:01:37;;;;;;;38.45;7.53;;;33.40;63.70;;;;;;4995098;28;20022;-60
2023/09/07 04:04:03;;;;;;;33.67;6.63;;;33.30;64.10;;;;;;4996630;28;20017;-59
2023/09/07 04:06:30;;;;;;;39.97;7.78;;;33.30;64.40;;;;;;4993513;28;20038;-59
2023/09/07 04:08:56;;;;;;;32.85;7.43;;;33.30;64.60;;;;;;4994479;28;20022;-59
2023/09/07 04:11:23;;;;;;;52.65;8.25;;;33.20;64.60;;;;;;4993201;28;20029;-59
2023/09/07 04:13:49;;;;;;;31.55;8.07;;;33.10;64.90;;;;;;4994323;28;20022;-59
2023/09/07 04:16:15;;;;;;;31.05;7.13;;;33.10;65.30;;;;;;4994804;28;20123;-59
2023/09/07 04:18:44;;;;;;;37.75;7.97;;;33.10;65.80;;;;;;4991085;28;20045;-59
2023/09/07 04:21:10;;;;;;;47.95;8.38;;;33.00;65.90;;;;;;4993917;28;20470;-62
2023/09/07 04:23:38;;;;;;;31.92;7.05;;;33.00;66.20;;;;;;4997147;28;20062;-60
2023/09/07 04:26:08;;;;;;;43.25;7.57;;;32.90;66.40;;;;;;4993707;28;20010;-59
2023/09/07 04:28:35;;;;;;;44.03;9.05;;;32.90;66.70;;;;;;4994051;28;20065;-59
2023/09/07 04:31:06;;;;;;;52.30;8.50;;;32.90;66.40;;;;;;4994065;28;20488;-58
2023/09/07 04:33:33;;;;;;;45.80;8.18;;;32.80;67.00;;;;;;4992639;28;20497;-60
2023/09/07 04:36:14;;;;;;;40.88;7.60;;;32.80;67.40;;;;;;4992546;28;20102;-60
2023/09/07 04:38:41;;;;;;;47.45;9.32;;;32.80;67.40;;;;;;4992890;28;20516;-60
2023/09/07 04:41:09;;;;;;;55.83;9.05;;;32.80;67.90;;;;;;4992949;28;20029;-60
2023/09/07 04:43:35;;;;;;;45.20;9.32;;;32.80;67.90;;;;;;4994160;28;20027;-59
2023/09/07 04:46:02;;;;;;;44.22;7.88;;;32.80;68.20;;;;;;4994172;28;20030;-60
2023/09/07 04:48:29;;;;;;;62.90;9.60;;;32.70;68.00;;;;;;4995285;28;20188;-59
2023/09/07 04:51:03;;;;;;;50.05;9.27;;;32.70;68.30;;;;;;4993385;28;20029;-60
2023/09/07 04:53:31;;;;;;;58.78;9.63;;;32.60;68.30;;;;;;4992996;28;20471;-60
2023/09/07 04:55:58;;;;;;;68.03;10.50;;;32.60;68.70;;;;;;4992630;28;20033;-59
2023/09/07 04:58:25;;;;;;;48.75;9.60;;;32.60;68.50;;;;;;4991891;28;20037;-60
2023/09/07 05:00:52;;;;;;;45.60;10.30;;;32.60;68.70;;;;;;4992477;28;20119;-62
2023/09/07 05:03:18;;;;;;;48.83;9.90;;;32.50;69.10;;;;;;4995468;28;20117;-59
2023/09/07 05:05:45;;;;;;;48.70;9.93;;;32.50;69.50;;;;;;4994382;28;20132;-59
2023/09/07 05:08:11;;;;;;;52.58;10.48;;;32.50;69.20;;;;;;4995535;28;20018;-59
2023/09/07 05:10:38;;;;;;;66.85;12.40;;;32.40;70.60;;;;;;4993025;28;20022;-60
2023/09/07 05:13:05;;;;;;;59.25;12.95;;;32.40;70.50;;;;;;4992470;28;20375;-61
2023/09/07 05:15:32;;;;;;;48.78;12.32;;;32.40;70.90;;;;;;4992031;28;20014;-61
2023/09/07 05:17:58;;;;;;;52.83;11.70;;;32.40;71.50;;;;;;5000563;28;20037;-59
2023/09/07 05:20:24;;;;;;;73.47;12.70;;;32.30;70.90;;;;;;4995340;28;20351;-61
2023/09/07 05:22:51;;;;;;;83.60;13.82;;;32.30;70.80;;;;;;4992496;28;20084;-60
2023/09/07 05:25:20;;;;;;;74.50;13.45;;;32.30;71.20;;;;;;4999359;28;20018;-60
2023/09/07 05:27:46;;;;;;;66.47;14.18;;;32.30;71.70;;;;;;4995117;28;20652;-60
2023/09/07 05:30:12;;;;;;;64.28;13.07;;;32.20;71.60;;;;;;4994010;28;20475;-60
2023/09/07 05:32:41;;;;;;;66.20;13.85;;;32.20;71.70;;;;;;4994032;28;20475;-61
2023/09/07 05:35:10;;;;;;;71.50;13.25;;;32.10;72.00;;;;;;4995142;28;20053;-60
2023/09/07 05:37:36;;;;;;;64.90;13.30;;;32.10;72.50;;;;;;4993108;28;20452;-60
2023/09/07 05:40:03;;;;;;;69.82;13.25;;;32.10;72.40;;;;;;4996477;28;20035;-61
2023/09/07 05:42:30;;;;;;;62.35;12.40;;;32.00;71.80;;;;;;4990197;28;20049;-59
2023/09/07 05:44:56;;;;;;;76.47;13.43;;;32.00;71.60;;;;;;4992383;28;20011;-61
2023/09/07 05:47:26;;;;;;;64.43;12.55;;;32.00;72.10;;;;;;4997029;28;20018;-61
2023/09/07 05:49:52;;;;;;;78.30;13.85;;;32.00;71.50;;;;;;4995447;28;20099;-59
2023/09/07 05:52:19;;;;;;;59.45;13.40;;;32.00;72.90;;;;;;4991611;28;20018;-60
2023/09/07 05:54:45;;;;;;;68.07;14.18;;;31.90;72.10;;;;;;4993546;28;20014;-60
2023/09/07 05:57:12;;;;;;;54.88;11.82;;;31.90;72.20;;;;;;4993412;28;20022;-58
2023/09/07 05:59:38;;;;;;;69.57;13.38;;;31.80;73.30;;;;;;4991604;28;20518;-62
2023/09/07 06:02:05;;;;;;;139.60;81.95;;;31.80;73.80;;;;;;4992018;28;20442;-62
2023/09/07 06:04:31;;;;;;;113.97;49.00;;;31.70;74.10;;;;;;4992158;28;20125;-59
2023/09/07 06:06:57;;;;;;;69.97;15.68;;;31.60;73.80;;;;;;4990818;28;20471;-59
2023/09/07 06:09:24;;;;;;;64.22;18.05;;;31.60;74.60;;;;;;4991464;28;20018;-60
2023/09/07 06:11:50;;;;;;;72.28;14.43;;;31.60;73.90;;;;;;4991796;28;20012;-60
2023/09/07 06:14:16;;;;;;;76.05;15.15;;;31.60;73.70;;;;;;4996099;28;20127;-60
2023/09/07 06:16:43;;;;;;;73.68;14.20;;;31.50;74.30;;;;;;4994405;28;20101;-59
2023/09/07 06:19:09;;;;;;;62.28;12.65;;;31.50;73.60;;;;;;4999216;28;20389;-59
2023/09/07 06:21:36;;;;;;;59.83;12.18;;;31.40;73.40;;;;;;4999991;28;20033;-63
2023/09/07 06:24:03;;;;;;;67.65;11.82;;;31.40;73.60;;;;;;4997618;28;20018;-59
2023/09/07 06:26:29;;;;;;;52.05;11.45;;;31.40;74.50;;;;;;4998350;28;20026;-61
2023/09/07 06:28:55;;;;;;;57.65;12.90;;;31.30;74.60;;;;;;5000540;28;20018;-60
2023/09/07 06:31:22;;;;;;;54.60;12.30;;;31.30;75.10;;;;;;4997819;28;20076;-60
2023/09/07 06:33:49;;;;;;;62.30;13.68;;;31.30;74.80;;;;;;5015980;28;20069;-60
2023/09/07 06:36:15;;;;;;;61.72;13.35;;;31.20;74.60;;;;;;5001002;28;20010;-60
2023/09/07 06:38:41;;;;;;;66.40;14.00;;;31.20;73.90;;;;;;5001358;28;20026;-59
2023/09/07 06:41:09;;;;;;;66.07;14.25;;;31.20;74.10;;;;;;5000007;28;21477;-62
2023/09/07 06:43:36;;;;;;;66.05;14.38;;;31.30;74.80;;;;;;4998251;28;20370;-64
2023/09/07 06:46:11;;;;;;;69.70;14.30;;;31.70;73.80;;;;;;4997417;28;20106;-63
2023/09/07 06:48:37;;;;;;;80.75;14.63;;;32.20;74.60;;;;;;4996955;28;20101;-67
2023/09/07 06:51:05;;;;;;;76.70;14.32;;;32.50;73.80;;;;;;4995250;28;20022;-63
2023/09/07 06:53:32;;;;;;;55.90;12.40;;;32.30;72.60;;;;;;4999950;28;20026;-64
2023/09/07 06:56:00;;;;;;;65.45;13.85;;;32.10;72.40;;;;;;4997539;28;20038;-66
2023/09/07 06:58:27;;;;;;;68.78;13.90;;;32.00;72.60;;;;;;4998520;28;20042;-66
2023/09/07 07:00:57;;;;;;;63.85;13.57;;;32.00;73.00;;;;;;4998081;28;20105;-64
2023/09/07 07:03:27;;;;;;;58.53;13.82;;;32.00;73.00;;;;;;5001293;28;20493;-65
2023/09/07 07:05:54;;;;;;;62.78;12.45;;;32.00;73.50;;;;;;5002978;28;20467;-66
2023/09/07 07:08:20;;;;;;;58.28;13.70;;;32.00;73.80;;;;;;5002662;28;20140;-67
2023/09/07 07:10:47;;;;;;;62.35;13.52;;;32.00;74.40;;;;;;5000605;28;20053;-65
2023/09/07 07:13:13;;;;;;;52.97;12.80;;;31.90;73.90;;;;;;5001046;28;20498;-67
2023/09/07 07:15:39;;;;;;;94.85;16.63;;;31.90;74.20;;;;;;5001692;28;20425;-64
2023/09/07 07:18:08;;;;;;;75.20;13.38;;;32.00;73.40;;;;;;5001424;28;20643;-64
2023/09/07 07:20:43;;;;;;;62.53;12.50;;;32.00;74.10;;;;;;5004311;28;20018;-64
2023/09/07 07:23:12;;;;;;;53.90;11.38;;;31.90;73.70;;;;;;5001922;28;20034;-64
2023/09/07 07:25:39;;;;;;;42.13;8.63;;;31.80;73.90;;;;;;5004805;28;20382;-63
2023/09/07 07:28:06;;;;;;;31.98;7.93;;;31.90;73.20;;;;;;5002804;28;20014;-66
2023/09/07 07:30:37;;;;;;;31.83;7.85;;;31.90;72.90;;;;;;5003621;28;20514;-66
2023/09/07 07:33:04;;;;;;;40.38;7.93;;;31.80;72.80;;;;;;5001536;28;20402;-66
2023/09/07 07:35:34;;;;;;;23.73;6.60;;;31.80;72.90;;;;;;5003284;28;20026;-65
2023/09/07 07:38:03;;;;;;;35.03;6.03;;;31.80;72.60;;;;;;4999059;28;20019;-66
2023/09/07 07:40:31;;;;;;;34.40;6.72;;;31.70;72.70;;;;;;4999165;28;20413;-63
2023/09/07 07:42:57;;;;;;;33.15;6.18;;;31.60;72.70;;;;;;4998773;28;20014;-65
2023/09/07 07:45:23;;;;;;;34.30;6.60;;;31.70;73.80;;;;;;5000751;28;20014;-65
2023/09/07 07:47:50;;;;;;;32.00;6.03;;;31.60;72.80;;;;;;5000754;28;20024;-65
2023/09/07 07:50:18;;;;;;;26.85;5.60;;;31.60;72.30;;;;;;5004029;28;20021;-65
2023/09/07 07:52:44;;;;;;;22.45;4.57;;;31.60;72.20;;;;;;5001614;28;20037;-65
2023/09/07 07:55:12;;;;;;;28.98;5.30;;;31.50;72.40;;;;;;5000408;28;20037;-65
2023/09/07 07:57:38;;;;;;;22.92;4.50;;;31.50;71.40;;;;;;5004647;28;20143;-64
2023/09/07 08:00:06;;;;;;;20.85;4.85;;;31.50;71.60;;;;;;5001247;28;20033;-65
2023/09/07 08:02:33;;;;;;;19.70;4.72;;;31.40;71.20;;;;;;5005438;28;20022;-64
2023/09/07 08:04:59;;;;;;;18.77;4.32;;;31.40;70.80;;;;;;4999869;28;20443;-64
2023/09/07 08:07:27;;;;;;;19.98;4.65;;;31.40;70.90;;;;;;5002056;28;20144;-65
2023/09/07 08:09:53;;;;;;;26.10;3.85;;;31.30;70.30;;;;;;5004578;28;20382;-66
2023/09/07 08:12:20;;;;;;;14.45;3.95;;;31.30;70.70;;;;;;5004287;28;20021;-67
2023/09/07 08:14:46;;;;;;;19.33;4.03;;;31.30;70.20;;;;;;5002448;28;20014;-66
2023/09/07 08:17:13;;;;;;;17.55;3.88;;;31.20;70.00;;;;;;5004244;28;20101;-66
2023/09/07 08:19:39;;;;;;;23.75;4.57;;;31.20;70.40;;;;;;4999032;28;20038;-66
2023/09/07 08:22:06;;;;;;;26.63;3.88;;;31.20;70.50;;;;;;5002256;28;20018;-64
2023/09/07 08:24:33;;;;;;;20.17;4.10;;;31.20;70.70;;;;;;5000672;28;20018;-64
2023/09/07 08:27:00;;;;;;;12.85;3.60;;;31.10;70.90;;;;;;5001719;28;20014;-65
2023/09/07 08:29:27;;;;;;;14.32;4.22;;;31.10;70.90;;;;;;4999050;28;20029;-66
2023/09/07 08:31:54;;;;;;;17.98;4.22;;;30.90;71.20;;;;;;4998645;28;20096;-66
2023/09/07 08:34:21;;;;;;;22.20;4.97;;;30.90;72.10;;;;;;5002774;28;20029;-65
2023/09/07 08:36:49;;;;;;;13.90;4.72;;;30.80;72.40;;;;;;4993170;28;20076;-66
2023/09/07 08:39:17;;;;;;;20.42;4.75;;;30.80;72.80;;;;;;4997788;28;20077;-65
2023/09/07 08:41:44;;;;;;;16.55;3.90;;;30.70;72.70;;;;;;4993940;28;20011;-65
2023/09/07 08:44:11;;;;;;;18.13;3.95;;;30.60;74.20;;;;;;4998774;28;20025;-64
2023/09/07 08:46:38;;;;;;;19.00;4.50;;;30.60;73.90;;;;;;5000121;28;20024;-65
2023/09/07 08:49:05;;;;;;;15.07;3.92;;;30.50;73.80;;;;;;4996490;28;20152;-64
2023/09/07 08:51:32;;;;;;;10.18;3.70;;;30.40;74.40;;;;;;4997046;28;20040;-64
2023/09/07 08:53:59;;;;;;;15.88;4.13;;;30.30;74.70;;;;;;5000289;28;20698;-65
2023/09/07 08:56:26;;;;;;;14.73;4.50;;;30.20;74.90;;;;;;4998529;28;20032;-64
2023/09/07 08:58:53;;;;;;;22.60;4.22;;;30.20;74.50;;;;;;5000632;28;20053;-65
2023/09/07 09:01:21;;;;;;;14.00;4.63;;;30.20;74.40;;;;;;5002076;28;20014;-66
2023/09/07 09:03:49;;;;;;;14.85;3.95;;;30.20;74.40;;;;;;5000866;28;20588;-67
2023/09/07 09:06:18;;;;;;;20.52;4.75;;;30.20;74.80;;;;;;5001694;28;20025;-65
2023/09/07 09:08:56;;;;;;;13.15;3.60;;;30.10;74.30;;;;;;4998590;28;20025;-66
2023/09/07 09:11:24;;;;;;;16.33;4.53;;;30.10;75.40;;;;;;5001256;28;20025;-66
2023/09/07 09:13:52;;;;;;;11.20;4.47;;;30.00;73.90;;;;;;4999790;28;20025;-64
2023/09/07 09:16:18;;;;;;;10.50;4.03;;;30.00;73.90;;;;;;5001072;28;20034;-65
2023/09/07 09:18:53;;;;;;;10.10;4.28;;;30.00;73.20;;;;;;5002281;28;20040;-65
2023/09/07 09:21:24;;;;;;;13.48;4.03;;;29.90;73.20;;;;;;5001260;28;20105;-65
2023/09/07 09:23:53;;;;;;;22.38;4.30;;;29.90;72.90;;;;;;5002873;28;20021;-65
2023/09/07 09:26:20;;;;;;;22.73;5.13;;;29.90;72.60;;;;;;5001745;28;20054;-69
2023/09/07 09:28:46;;;;;;;17.20;4.47;;;29.90;72.50;;;;;;5000043;28;21457;-64
2023/09/07 09:31:14;;;;;;;19.40;4.00;;;30.00;72.50;;;;;;4998630;28;20043;-65
2023/09/07 09:33:42;;;;;;;14.80;3.95;;;29.90;72.50;;;;;;4998561;28;20101;-64
2023/09/07 09:36:09;;;;;;;21.55;4.30;;;29.90;72.60;;;;;;5001601;28;20072;-64
2023/09/07 09:38:36;;;;;;;12.65;3.67;;;29.90;71.80;;;;;;5001375;28;20037;-66
2023/09/07 09:41:03;;;;;;;19.02;4.93;;;29.80;70.50;;;;;;5002532;28;20296;-64
2023/09/07 09:43:30;;;;;;;21.63;4.28;;;29.80;70.30;;;;;;4997577;28;20067;-64
2023/09/07 09:45:58;;;;;;;13.85;3.88;;;29.80;70.00;;;;;;5000661;28;20014;-64
2023/09/07 09:48:24;;;;;;;14.18;4.20;;;29.70;70.30;;;;;;4999468;28;20026;-64
2023/09/07 09:50:53;;;;;;;17.95;3.70;;;29.70;70.40;;;;;;4996798;28;20433;-65
2023/09/07 09:53:20;;;;;;;16.75;4.18;;;29.60;69.80;;;;;;5003661;28;20010;-65
2023/09/07 09:55:54;;;;;;;15.43;4.28;;;29.60;68.70;;;;;;5001313;28;20022;-64
2023/09/07 09:58:20;;;;;;;13.70;4.32;;;29.60;68.20;;;;;;5001580;28;20030;-65
2023/09/07 10:00:55;;;;;;;10.43;4.15;;;29.50;67.90;;;;;;4997510;28;20136;-64
2023/09/07 10:03:30;;;;;;;16.23;4.30;;;29.40;67.80;;;;;;4998266;28;20015;-65
2023/09/07 10:06:07;;;;;;;15.25;4.30;;;29.40;67.90;;;;;;5000108;28;20018;-63
2023/09/07 10:08:33;;;;;;;11.30;4.10;;;29.40;68.30;;;;;;4999276;28;20018;-65
2023/09/07 10:11:00;;;;;;;18.95;4.55;;;29.30;68.70;;;;;;4999825;28;20706;-64
2023/09/07 10:13:32;;;;;;;12.73;4.82;;;29.30;68.80;;;;;;4999158;28;20509;-66
2023/09/07 10:16:08;;;;;;;15.93;3.97;;;29.30;69.10;;;;;;5000822;28;20068;-64
2023/09/07 10:18:35;;;;;;;;;;;29.20;69.00;;;;;;5002884;28;20056;-64
2023/09/07 10:21:02;;;;;;;;;;;29.20;69.60;;;;;;5001212;28;20382;-65
2023/09/07 10:23:43;;;;;;;14.10;4.40;;;29.20;69.80;;;;;;4998907;28;19913;-65
2023/09/07 10:26:15;;;;;;;14.95;4.68;;;29.20;70.40;;;;;;4996969;28;20046;-63
2023/09/07 10:28:43;;;;;;;16.90;4.22;;;29.10;71.40;;;;;;4999804;28;20026;-64
2023/09/07 10:31:17;;;;;;;13.93;4.13;;;29.00;72.00;;;;;;4999534;28;20428;-65
2023/09/07 10:33:43;;;;;;;11.70;4.07;;;29.00;71.40;;;;;;5000303;28;20030;-66
2023/09/07 10:36:27;;;;;;;15.40;4.15;;;29.00;72.30;;;;;;5006263;28;20117;-64
2023/09/07 10:38:56;;;;;;;12.75;4.80;;;28.90;72.60;;;;;;5003675;28;20055;-64
2023/09/07 10:41:23;;;;;;;18.98;4.10;;;28.90;73.10;;;;;;5010470;28;20042;-64
2023/09/07 10:43:51;;;;;;;14.23;4.28;;;28.80;73.70;;;;;;5001630;28;20006;-66
2023/09/07 10:46:22;;;;;;;13.80;4.50;;;28.80;73.90;;;;;;5005594;28;20018;-65
2023/09/07 10:48:53;;;;;;;16.23;4.28;;;28.80;74.40;;;;;;5006010;28;20026;-64
2023/09/07 10:51:23;;;;;;;15.32;3.85;;;28.70;72.60;;;;;;5005036;28;20028;-66
2023/09/07 10:53:49;;;;;;;17.85;4.47;;;28.70;73.10;;;;;;5004716;28;20032;-64
2023/09/07 10:56:16;;;;;;;13.73;4.43;;;28.60;74.90;;;;;;5003931;28;20084;-65
2023/09/07 10:58:43;;;;;;;15.75;4.50;;;28.50;74.80;;;;;;5002713;28;20034;-67
2023/09/07 11:01:10;;;;;;;14.70;4.65;;;28.50;74.30;;;;;;5003580;28;20942;-65
2023/09/07 11:03:38;;;;;;;18.17;4.85;;;28.40;74.90;;;;;;5004997;28;20010;-65
2023/09/07 11:06:12;;;;;;;17.55;4.65;;;28.40;74.40;;;;;;5002586;28;20129;-65
2023/09/07 11:08:38;;;;;;;13.68;4.15;;;28.40;75.00;;;;;;5002195;28;20137;-63
2023/09/07 11:11:05;;;;;;;17.08;4.53;;;28.40;75.00;;;;;;5004027;28;20373;-65
2023/09/07 11:13:32;;;;;;;15.70;4.15;;;28.20;75.40;;;;;;5001147;28;20052;-63
2023/09/07 11:15:59;;;;;;;14.32;5.07;;;28.30;76.70;;;;;;5004772;28;20106;-64
2023/09/07 11:18:26;;;;;;;18.05;4.18;;;28.20;75.10;;;;;;5003659;28;20137;-64
2023/09/07 11:20:53;;;;;;;24.27;4.60;;;28.20;75.40;;;;;;5002432;28;20044;-65
2023/09/07 11:23:22;;;;;;;14.15;4.53;;;28.30;74.80;;;;;;5002896;28;20029;-65
2023/09/07 11:25:49;;;;;;;17.48;4.88;;;28.30;74.60;;;;;;5001015;28;20036;-65
2023/09/07 11:28:18;;;;;;;12.13;4.50;;;28.40;75.60;;;;;;5001687;28;20730;-63
2023/09/07 11:30:55;;;;;;;15.88;5.30;;;28.30;75.30;;;;;;5001354;28;20046;-66
2023/09/07 11:33:22;;;;;;;18.98;5.07;;;28.20;75.50;;;;;;5002939;28;20466;-64
2023/09/07 11:35:49;;;;;;;20.30;5.50;;;28.20;76.40;;;;;;5003739;28;20053;-66
2023/09/07 11:38:17;;;;;;;20.48;5.38;;;28.20;75.70;;;;;;5002448;28;20526;-65
2023/09/07 11:40:47;;;;;;;26.35;5.50;;;28.20;75.30;;;;;;4999650;28;20014;-64
2023/09/07 11:43:20;;;;;;;17.15;4.68;;;28.10;75.40;;;;;;5001579;28;20052;-65
2023/09/07 11:45:47;;;;;;;12.18;5.40;;;28.10;76.20;;;;;;5005891;28;20143;-64
2023/09/07 11:48:13;;;;;;;18.05;4.70;;;28.10;76.60;;;;;;5002543;28;20476;-66
2023/09/07 11:50:41;;;;;;;14.75;5.00;;;28.00;77.70;;;;;;5002802;28;20014;-64
2023/09/07 11:53:08;;;;;;;13.98;5.25;;;28.00;77.20;;;;;;5001278;28;20056;-64
2023/09/07 11:55:35;;;;;;;18.50;4.95;;;28.00;77.90;;;;;;5000666;28;20085;-64
2023/09/07 11:58:02;;;;;;;22.20;5.55;;;28.00;77.80;;;;;;5003089;28;20418;-63
2023/09/07 12:00:31;;;;;;;17.42;6.03;;;28.10;77.50;;;;;;5002631;28;20067;-65
2023/09/07 12:02:57;;;;;;;16.80;5.65;;;28.10;79.00;;;;;;5000685;28;20988;-66
2023/09/07 12:05:24;;;;;;;20.08;5.43;;;27.90;79.30;;;;;;5002385;28;20079;-65
2023/09/07 12:07:50;;;;;;;26.08;6.47;;;27.80;80.30;;;;;;5002235;28;20032;-64
2023/09/07 12:10:17;;;;;;;18.20;5.95;;;27.70;78.70;;;;;;5002063;28;20020;-66
2023/09/07 12:12:44;;;;;;;27.90;7.13;;;27.60;79.50;;;;;;5003020;28;20416;-65
2023/09/07 12:15:14;;;;;;;37.60;7.60;;;27.60;79.80;;;;;;5001061;28;20018;-65
2023/09/07 12:17:40;;;;;;;33.35;7.38;;;27.70;78.50;;;;;;5001154;28;20029;-64
2023/09/07 12:20:09;;;;;;;22.63;6.38;;;27.70;78.00;;;;;;5002152;28;20041;-64
2023/09/07 12:22:37;;;;;;;19.00;6.25;;;27.80;78.80;;;;;;5002466;28;20070;-63
2023/09/07 12:25:07;;;;;;;20.20;6.65;;;27.80;79.50;;;;;;5000155;28;20026;-66
2023/09/07 12:27:34;;;;;;;19.40;6.45;;;27.60;80.20;;;;;;5000795;28;20029;-65
2023/09/07 12:30:02;;;;;;;28.52;7.07;;;27.50;80.70;;;;;;5001192;28;20551;-65
2023/09/07 12:32:28;;;;;;;23.95;8.10;;;27.50;80.70;;;;;;5002896;28;20130;-63
2023/09/07 12:34:55;;;;;;;18.25;7.68;;;27.50;80.20;;;;;;5001233;28;20044;-64
2023/09/07 12:37:23;;;;;;;25.48;7.50;;;27.40;81.00;;;;;;5001039;28;20508;-65